sensor_id;sensor_type;location;lat;lon;timestamp;temperature;humidity
75113;DHT22;63692;47.338;8.520;2024-03-22T05:17:58;9.30;99.90
75113;DHT22;63692;47.338;8.520;2024-03-22T05:20:24;9.20;99.90
75113;DHT22;63692;47.338;8.520;2024-03-22T05:22:49;9.30;99.90
75113;DHT22;63692;47.338;8.520;2024-03-22T05:25:15;9.30;99.90
75113;DHT22;63692;47.338;8.520;2024-03-22T05:30:10;9.20;99.90
75113;DHT22;63692;47.338;8.520;2024-03-22T05:40:00;9.30;99.90
75113;DHT22;63692;47.338;8.520;2024-03-22T09:07:20;12.30;99.90
75113;DHT22;63692;47.338;8.520;2024-03-22T09:09:45;12.30;99.90
75113;DHT22;63692;47.338;8.520;2024-03-22T09:12:11;12.40;99.90
75113;DHT22;63692;47.338;8.520;2024-03-22T09:14:36;12.40;99.90
75113;DHT22;63692;47.338;8.520;2024-03-22T09:17:02;12.40;99.90
75113;DHT22;63692;47.338;8.520;2024-03-22T09:19:28;12.50;99.90
75113;DHT22;63692;47.338;8.520;2024-03-22T09:21:53;12.50;99.90
75113;DHT22;63692;47.338;8.520;2024-03-22T09:24:19;12.50;99.90
75113;DHT22;63692;47.338;8.520;2024-03-22T09:26:45;12.50;99.90
75113;DHT22;63692;47.338;8.520;2024-03-22T09:29:13;12.50;99.90
75113;DHT22;63692;47.338;8.520;2024-03-22T09:31:38;12.60;99.90
75113;DHT22;63692;47.338;8.520;2024-03-22T09:34:04;12.60;99.90
75113;DHT22;63692;47.338;8.520;2024-03-22T09:36:29;12.60;99.90
75113;DHT22;63692;47.338;8.520;2024-03-22T09:38:59;12.60;99.90
75113;DHT22;63692;47.338;8.520;2024-03-22T09:41:25;12.70;99.90
75113;DHT22;63692;47.338;8.520;2024-03-22T09:43:55;12.60;99.90
75113;DHT22;63692;47.338;8.520;2024-03-22T09:46:23;12.70;99.90
75113;DHT22;63692;47.338;8.520;2024-03-22T09:48:49;12.70;99.90
75113;DHT22;63692;47.338;8.520;2024-03-22T09:51:16;12.70;99.90
75113;DHT22;63692;47.338;8.520;2024-03-22T09:53:44;12.80;99.90
75113;DHT22;63692;47.338;8.520;2024-03-22T09:56:13;12.80;99.90
75113;DHT22;63692;47.338;8.520;2024-03-22T09:58:42;12.80;99.90
75113;DHT22;63692;47.338;8.520;2024-03-22T10:01:09;12.80;99.90
75113;DHT22;63692;47.338;8.520;2024-03-22T10:06:02;13.20;99.90
75113;DHT22;63692;47.338;8.520;2024-03-22T10:08:27;13.40;99.90
75113;DHT22;63692;47.338;8.520;2024-03-22T10:10:53;13.50;99.90
75113;DHT22;63692;47.338;8.520;2024-03-22T10:13:19;13.60;99.90
75113;DHT22;63692;47.338;8.520;2024-03-22T10:15:45;13.60;99.90
75113;DHT22;63692;47.338;8.520;2024-03-22T10:18:11;13.80;99.90
75113;DHT22;63692;47.338;8.520;2024-03-22T10:20:36;14.00;99.90
75113;DHT22;63692;47.338;8.520;2024-03-22T10:23:02;14.00;99.90
75113;DHT22;63692;47.338;8.520;2024-03-22T10:25:28;14.10;99.90
75113;DHT22;63692;47.338;8.520;2024-03-22T10:27:57;14.10;99.90
75113;DHT22;63692;47.338;8.520;2024-03-22T10:30:24;14.20;99.90
75113;DHT22;63692;47.338;8.520;2024-03-22T10:32:51;14.20;99.90
75113;DHT22;63692;47.338;8.520;2024-03-22T10:35:17;14.40;99.90
75113;DHT22;63692;47.338;8.520;2024-03-22T10:37:43;14.40;99.90
75113;DHT22;63692;47.338;8.520;2024-03-22T10:40:10;14.30;99.90
75113;DHT22;63692;47.338;8.520;2024-03-22T10:47:34;14.40;99.90
75113;DHT22;63692;47.338;8.520;2024-03-22T10:50:11;14.50;99.90
75113;DHT22;63692;47.338;8.520;2024-03-22T10:52:45;14.50;99.90
75113;DHT22;63692;47.338;8.520;2024-03-22T10:55:27;14.50;99.90
75113;DHT22;63692;47.338;8.520;2024-03-22T11:00:35;14.50;99.90
75113;DHT22;63692;47.338;8.520;2024-03-22T11:03:02;14.60;99.90
75113;DHT22;63692;47.338;8.520;2024-03-22T11:05:28;14.60;99.90
75113;DHT22;63692;47.338;8.520;2024-03-22T11:08:02;14.70;99.90
75113;DHT22;63692;47.338;8.520;2024-03-22T11:10:30;14.80;99.90
75113;DHT22;63692;47.338;8.520;2024-03-22T11:13:03;15.00;99.90
75113;DHT22;63692;47.338;8.520;2024-03-22T11:15:30;15.10;99.90
75113;DHT22;63692;47.338;8.520;2024-03-22T11:17:56;15.20;99.90
75113;DHT22;63692;47.338;8.520;2024-03-22T11:20:22;15.30;99.90
75113;DHT22;63692;47.338;8.520;2024-03-22T11:22:48;15.40;99.90
75113;DHT22;63692;47.338;8.520;2024-03-22T11:25:13;15.40;99.90
75113;DHT22;63692;47.338;8.520;2024-03-22T11:27:39;15.40;99.90
75113;DHT22;63692;47.338;8.520;2024-03-22T11:30:05;15.40;99.90
75113;DHT22;63692;47.338;8.520;2024-03-22T11:32:31;15.40;99.90
75113;DHT22;63692;47.338;8.520;2024-03-22T11:34:57;15.40;99.90
75113;DHT22;63692;47.338;8.520;2024-03-22T11:37:22;15.40;99.90
75113;DHT22;63692;47.338;8.520;2024-03-22T11:39:48;15.50;99.90
75113;DHT22;63692;47.338;8.520;2024-03-22T11:42:15;15.60;99.90
75113;DHT22;63692;47.338;8.520;2024-03-22T11:44:42;15.70;99.90
75113;DHT22;63692;47.338;8.520;2024-03-22T11:47:08;15.70;99.90
75113;DHT22;63692;47.338;8.520;2024-03-22T11:49:34;15.80;99.90
75113;DHT22;63692;47.338;8.520;2024-03-22T11:52:00;15.90;98.90
75113;DHT22;63692;47.338;8.520;2024-03-22T11:54:26;16.00;97.40
75113;DHT22;63692;47.338;8.520;2024-03-22T11:56:55;15.90;99.10
75113;DHT22;63692;47.338;8.520;2024-03-22T11:59:21;15.90;99.90
75113;DHT22;63692;47.338;8.520;2024-03-22T12:01:47;15.90;99.90
75113;DHT22;63692;47.338;8.520;2024-03-22T12:04:13;15.90;98.90
75113;DHT22;63692;47.338;8.520;2024-03-22T12:06:45;16.00;98.90
75113;DHT22;63692;47.338;8.520;2024-03-22T12:09:11;16.10;97.80
75113;DHT22;63692;47.338;8.520;2024-03-22T12:11:39;16.10;97.70
75113;DHT22;63692;47.338;8.520;2024-03-22T12:14:05;16.20;97.20
75113;DHT22;63692;47.338;8.520;2024-03-22T12:16:31;16.30;98.20
75113;DHT22;63692;47.338;8.520;2024-03-22T12:18:57;16.30;96.20
75113;DHT22;63692;47.338;8.520;2024-03-22T12:21:23;16.40;96.70
75113;DHT22;63692;47.338;8.520;2024-03-22T12:23:49;16.30;96.20
75113;DHT22;63692;47.338;8.520;2024-03-22T12:26:15;16.30;97.60
75113;DHT22;63692;47.338;8.520;2024-03-22T12:28:40;16.20;97.30
75113;DHT22;63692;47.338;8.520;2024-03-22T12:31:08;16.30;94.80
75113;DHT22;63692;47.338;8.520;2024-03-22T12:33:33;16.30;98.50
75113;DHT22;63692;47.338;8.520;2024-03-22T12:40:56;16.60;94.30
75113;DHT22;63692;47.338;8.520;2024-03-22T12:43:22;16.70;93.60
75113;DHT22;63692;47.338;8.520;2024-03-22T12:45:47;16.80;93.50
75113;DHT22;63692;47.338;8.520;2024-03-22T12:48:13;16.90;93.50
75113;DHT22;63692;47.338;8.520;2024-03-22T12:50:39;17.00;92.10
75113;DHT22;63692;47.338;8.520;2024-03-22T12:53:04;16.90;91.90
75113;DHT22;63692;47.338;8.520;2024-03-22T12:55:30;16.90;93.70
75113;DHT22;63692;47.338;8.520;2024-03-22T12:57:57;16.90;94.60
75113;DHT22;63692;47.338;8.520;2024-03-22T13:00:22;16.90;92.80
75113;DHT22;63692;47.338;8.520;2024-03-22T13:02:48;17.10;90.00
75113;DHT22;63692;47.338;8.520;2024-03-22T13:05:14;17.20;90.70
75113;DHT22;63692;47.338;8.520;2024-03-22T13:07:40;17.30;90.10
75113;DHT22;63692;47.338;8.520;2024-03-22T13:10:08;17.30;90.80
75113;DHT22;63692;47.338;8.520;2024-03-22T13:12:34;17.40;90.90
75113;DHT22;63692;47.338;8.520;2024-03-22T13:15:03;17.50;88.10
75113;DHT22;63692;47.338;8.520;2024-03-22T13:17:29;17.70;87.60
75113;DHT22;63692;47.338;8.520;2024-03-22T13:19:55;17.80;86.10
75113;DHT22;63692;47.338;8.520;2024-03-22T13:22:21;17.90;86.90
75113;DHT22;63692;47.338;8.520;2024-03-22T13:24:47;17.90;87.80
75113;DHT22;63692;47.338;8.520;2024-03-22T13:27:13;18.10;86.30
75113;DHT22;63692;47.338;8.520;2024-03-22T13:29:42;18.00;88.90
75113;DHT22;63692;47.338;8.520;2024-03-22T13:32:08;18.00;88.40
75113;DHT22;63692;47.338;8.520;2024-03-22T13:34:37;18.10;87.00
75113;DHT22;63692;47.338;8.520;2024-03-22T13:37:04;18.30;84.50
75113;DHT22;63692;47.338;8.520;2024-03-22T13:39:29;18.40;83.50
75113;DHT22;63692;47.338;8.520;2024-03-22T13:41:58;18.50;84.30
75113;DHT22;63692;47.338;8.520;2024-03-22T13:44:24;18.70;83.60
75113;DHT22;63692;47.338;8.520;2024-03-22T13:46:50;18.80;82.70
75113;DHT22;63692;47.338;8.520;2024-03-22T13:49:17;18.90;83.70
75113;DHT22;63692;47.338;8.520;2024-03-22T13:51:43;19.00;81.60
75113;DHT22;63692;47.338;8.520;2024-03-22T13:54:11;19.00;86.70
75113;DHT22;63692;47.338;8.520;2024-03-22T13:56:36;19.10;83.30
75113;DHT22;63692;47.338;8.520;2024-03-22T13:59:03;19.20;83.00
75113;DHT22;63692;47.338;8.520;2024-03-22T14:01:40;19.30;77.60
75113;DHT22;63692;47.338;8.520;2024-03-22T14:04:09;19.40;76.90
75113;DHT22;63692;47.338;8.520;2024-03-22T14:06:37;19.50;77.70
75113;DHT22;63692;47.338;8.520;2024-03-22T14:09:03;19.60;74.40
75113;DHT22;63692;47.338;8.520;2024-03-22T14:11:30;19.70;73.60
75113;DHT22;63692;47.338;8.520;2024-03-22T14:13:57;19.80;74.60
75113;DHT22;63692;47.338;8.520;2024-03-22T14:16:23;19.90;74.90
75113;DHT22;63692;47.338;8.520;2024-03-22T14:18:49;20.00;72.00
75113;DHT22;63692;47.338;8.520;2024-03-22T14:21:16;20.20;72.60
75113;DHT22;63692;47.338;8.520;2024-03-22T14:23:48;20.40;74.30
75113;DHT22;63692;47.338;8.520;2024-03-22T14:26:15;20.50;71.80
75113;DHT22;63692;47.338;8.520;2024-03-22T14:28:41;20.60;72.10
75113;DHT22;63692;47.338;8.520;2024-03-22T14:31:11;20.70;70.80
75113;DHT22;63692;47.338;8.520;2024-03-22T14:33:40;20.90;70.60
75113;DHT22;63692;47.338;8.520;2024-03-22T14:36:06;21.00;71.10
75113;DHT22;63692;47.338;8.520;2024-03-22T14:38:33;21.40;68.40
75113;DHT22;63692;47.338;8.520;2024-03-22T14:40:58;21.80;67.20
75113;DHT22;63692;47.338;8.520;2024-03-22T14:43:26;22.10;65.10
75113;DHT22;63692;47.338;8.520;2024-03-22T14:45:52;22.50;63.50
75113;DHT22;63692;47.338;8.520;2024-03-22T14:48:19;22.60;60.60
75113;DHT22;63692;47.338;8.520;2024-03-22T14:50:46;22.50;59.50
75113;DHT22;63692;47.338;8.520;2024-03-22T14:55:40;22.60;61.00
75113;DHT22;63692;47.338;8.520;2024-03-22T14:58:15;22.60;69.00
75113;DHT22;63692;47.338;8.520;2024-03-22T15:00:40;22.90;63.60
75113;DHT22;63692;47.338;8.520;2024-03-22T15:13:00;24.80;53.80
75113;DHT22;63692;47.338;8.520;2024-03-22T15:17:56;25.40;51.30
75113;DHT22;63692;47.338;8.520;2024-03-22T15:20:22;25.30;51.70
75113;DHT22;63692;47.338;8.520;2024-03-22T15:22:47;25.00;52.20
75113;DHT22;63692;47.338;8.520;2024-03-22T15:25:13;24.70;51.80
75113;DHT22;63692;47.338;8.520;2024-03-22T15:27:39;24.20;52.10
75113;DHT22;63692;47.338;8.520;2024-03-22T15:30:05;24.20;55.70
75113;DHT22;63692;47.338;8.520;2024-03-22T15:32:31;24.40;54.20
75113;DHT22;63692;47.338;8.520;2024-03-22T15:34:57;24.70;51.50
75113;DHT22;63692;47.338;8.520;2024-03-22T15:37:22;24.90;54.10
75113;DHT22;63692;47.338;8.520;2024-03-22T15:39:49;25.00;50.40
75113;DHT22;63692;47.338;8.520;2024-03-22T15:42:15;25.00;50.30
75113;DHT22;63692;47.338;8.520;2024-03-22T15:44:41;25.20;50.30
75113;DHT22;63692;47.338;8.520;2024-03-22T15:47:06;25.00;52.60
75113;DHT22;63692;47.338;8.520;2024-03-22T15:49:33;24.70;52.50
75113;DHT22;63692;47.338;8.520;2024-03-22T15:51:59;24.80;52.30
75113;DHT22;63692;47.338;8.520;2024-03-22T15:54:25;25.10;50.40
75113;DHT22;63692;47.338;8.520;2024-03-22T15:56:50;24.90;50.10
75113;DHT22;63692;47.338;8.520;2024-03-22T15:59:16;24.60;49.00
75113;DHT22;63692;47.338;8.520;2024-03-22T16:01:41;24.10;49.50
75113;DHT22;63692;47.338;8.520;2024-03-22T16:04:08;24.20;50.70
75113;DHT22;63692;47.338;8.520;2024-03-22T16:06:33;24.60;50.30
75113;DHT22;63692;47.338;8.520;2024-03-22T16:08:59;24.90;50.10
75113;DHT22;63692;47.338;8.520;2024-03-22T16:11:25;25.00;51.30
75113;DHT22;63692;47.338;8.520;2024-03-22T16:13:50;24.80;50.60
75113;DHT22;63692;47.338;8.520;2024-03-22T16:16:16;24.00;53.20
75113;DHT22;63692;47.338;8.520;2024-03-22T16:18:42;23.50;53.60
75113;DHT22;63692;47.338;8.520;2024-03-22T16:21:07;22.80;54.40
75113;DHT22;63692;47.338;8.520;2024-03-22T16:23:34;22.40;55.50
75113;DHT22;63692;47.338;8.520;2024-03-22T16:25:59;22.20;57.00
75113;DHT22;63692;47.338;8.520;2024-03-22T16:28:25;22.00;56.90
75113;DHT22;63692;47.338;8.520;2024-03-22T16:30:52;21.80;56.80
75113;DHT22;63692;47.338;8.520;2024-03-22T16:33:17;21.60;57.60
75113;DHT22;63692;47.338;8.520;2024-03-22T16:35:43;21.40;63.70
75113;DHT22;63692;47.338;8.520;2024-03-22T16:38:09;21.20;64.30
75113;DHT22;63692;47.338;8.520;2024-03-22T16:40:35;21.00;63.20
75113;DHT22;63692;47.338;8.520;2024-03-22T16:43:00;20.80;64.20
75113;DHT22;63692;47.338;8.520;2024-03-22T16:45:29;20.60;69.60
75113;DHT22;63692;47.338;8.520;2024-03-22T16:47:56;20.40;71.00
